Terminal Aerodrome Forecast
Issued by NWS Pocatello, ID

Home | Current Version | Previous Version | Text Only | Print | Product List | Glossary On
Versions: 1 2 3 4 5 6 7 8 9 10 11 12 13 14 15 16 17 18 19 20 21 22 23 24 25 26 27 28
000
FTUS45 KPIH 171900 AAB
TAFIDA
TAF AMD
KIDA 171958Z 1720/1818 VRB04KT 1/4SM FZFG VV002
     FM172100 01008KT 6SM BR BKN005
     FM180400 VRB04KT 1SM BR OVC003
     FM180700 VRB04KT 1/4SM FZFG VV001
     FM181700 21005KT 2SM BR BKN005=

USA.gov is the U.S. government's official web portal to all federal, state and local government web resources and services.